sensor_id;sensor_type;location;lat;lon;timestamp;temperature;humidity
38788;DHT22;24536;45.488;12.238;2023-12-07T00:09:41;7.40;98.00
38788;DHT22;24536;45.488;12.238;2023-12-07T00:12:15;7.40;97.90
38788;DHT22;24536;45.488;12.238;2023-12-07T00:14:41;7.30;98.00
38788;DHT22;24536;45.488;12.238;2023-12-07T00:17:15;7.30;98.00
38788;DHT22;24536;45.488;12.238;2023-12-07T00:19:44;7.30;98.10
38788;DHT22;24536;45.488;12.238;2023-12-07T00:22:28;7.30;98.10
38788;DHT22;24536;45.488;12.238;2023-12-07T00:50:37;6.90;98.40
38788;DHT22;24536;45.488;12.238;2023-12-07T01:27:34;6.80;97.70
38788;DHT22;24536;45.488;12.238;2023-12-07T01:30:00;6.80;97.80
38788;DHT22;24536;45.488;12.238;2023-12-07T01:32:25;6.80;97.80
38788;DHT22;24536;45.488;12.238;2023-12-07T01:34:51;6.70;97.70
38788;DHT22;24536;45.488;12.238;2023-12-07T01:37:16;6.70;97.70
38788;DHT22;24536;45.488;12.238;2023-12-07T01:39:42;6.70;97.80
38788;DHT22;24536;45.488;12.238;2023-12-07T01:42:08;6.60;97.80
38788;DHT22;24536;45.488;12.238;2023-12-07T01:44:34;6.70;97.80
38788;DHT22;24536;45.488;12.238;2023-12-07T01:47:00;6.60;97.80
38788;DHT22;24536;45.488;12.238;2023-12-07T01:49:26;6.70;98.10
38788;DHT22;24536;45.488;12.238;2023-12-07T01:51:52;6.70;97.80
38788;DHT22;24536;45.488;12.238;2023-12-07T01:54:17;6.70;97.70
38788;DHT22;24536;45.488;12.238;2023-12-07T01:56:44;6.70;97.60
38788;DHT22;24536;45.488;12.238;2023-12-07T01:59:09;6.70;97.50
38788;DHT22;24536;45.488;12.238;2023-12-07T02:01:36;6.60;97.40
38788;DHT22;24536;45.488;12.238;2023-12-07T02:04:01;6.60;97.40
38788;DHT22;24536;45.488;12.238;2023-12-07T02:06:27;6.60;97.50
38788;DHT22;24536;45.488;12.238;2023-12-07T02:08:53;6.60;97.50
38788;DHT22;24536;45.488;12.238;2023-12-07T02:11:19;6.60;97.50
38788;DHT22;24536;45.488;12.238;2023-12-07T02:13:45;6.50;97.40
38788;DHT22;24536;45.488;12.238;2023-12-07T02:16:13;6.60;97.40
38788;DHT22;24536;45.488;12.238;2023-12-07T02:19:03;6.50;97.30
38788;DHT22;24536;45.488;12.238;2023-12-07T02:21:46;6.50;97.20
38788;DHT22;24536;45.488;12.238;2023-12-07T02:24:13;6.40;97.30
38788;DHT22;24536;45.488;12.238;2023-12-07T02:26:40;6.30;97.40
38788;DHT22;24536;45.488;12.238;2023-12-07T02:29:06;6.30;97.40
38788;DHT22;24536;45.488;12.238;2023-12-07T02:31:32;6.30;97.30
38788;DHT22;24536;45.488;12.238;2023-12-07T02:33:57;6.30;97.40
38788;DHT22;24536;45.488;12.238;2023-12-07T02:36:24;6.20;97.40
38788;DHT22;24536;45.488;12.238;2023-12-07T02:38:51;6.20;97.50
38788;DHT22;24536;45.488;12.238;2023-12-07T02:41:20;6.20;97.50
38788;DHT22;24536;45.488;12.238;2023-12-07T02:43:45;6.10;97.50
38788;DHT22;24536;45.488;12.238;2023-12-07T02:46:11;6.10;97.50
38788;DHT22;24536;45.488;12.238;2023-12-07T02:48:36;6.10;97.60
38788;DHT22;24536;45.488;12.238;2023-12-07T02:51:02;6.00;97.60
38788;DHT22;24536;45.488;12.238;2023-12-07T02:53:28;6.00;97.60
38788;DHT22;24536;45.488;12.238;2023-12-07T02:55:53;6.00;97.70
38788;DHT22;24536;45.488;12.238;2023-12-07T02:58:19;6.00;97.60
38788;DHT22;24536;45.488;12.238;2023-12-07T03:00:44;6.00;97.60
38788;DHT22;24536;45.488;12.238;2023-12-07T03:03:10;5.90;97.60
38788;DHT22;24536;45.488;12.238;2023-12-07T03:05:35;5.90;97.70
38788;DHT22;24536;45.488;12.238;2023-12-07T03:08:01;5.90;97.80
38788;DHT22;24536;45.488;12.238;2023-12-07T03:10:26;6.00;97.80
38788;DHT22;24536;45.488;12.238;2023-12-07T03:12:52;6.00;97.70
38788;DHT22;24536;45.488;12.238;2023-12-07T03:15:18;6.10;97.70
38788;DHT22;24536;45.488;12.238;2023-12-07T03:17:43;6.10;97.70
38788;DHT22;24536;45.488;12.238;2023-12-07T03:20:09;6.20;97.70
38788;DHT22;24536;45.488;12.238;2023-12-07T03:22:35;6.20;97.70
38788;DHT22;24536;45.488;12.238;2023-12-07T03:25:01;6.30;97.70
38788;DHT22;24536;45.488;12.238;2023-12-07T03:27:26;6.30;97.70
38788;DHT22;24536;45.488;12.238;2023-12-07T03:29:53;6.30;97.60
38788;DHT22;24536;45.488;12.238;2023-12-07T03:32:19;6.30;97.60
38788;DHT22;24536;45.488;12.238;2023-12-07T03:34:44;6.30;97.60
38788;DHT22;24536;45.488;12.238;2023-12-07T03:37:10;6.40;97.70
38788;DHT22;24536;45.488;12.238;2023-12-07T03:39:35;6.30;97.70
38788;DHT22;24536;45.488;12.238;2023-12-07T03:42:01;6.40;97.70
38788;DHT22;24536;45.488;12.238;2023-12-07T03:44:27;6.40;97.70
38788;DHT22;24536;45.488;12.238;2023-12-07T03:46:52;6.40;97.60
38788;DHT22;24536;45.488;12.238;2023-12-07T03:49:18;6.50;97.60
38788;DHT22;24536;45.488;12.238;2023-12-07T03:51:44;6.50;97.50
38788;DHT22;24536;45.488;12.238;2023-12-07T03:54:09;6.50;97.50
38788;DHT22;24536;45.488;12.238;2023-12-07T03:56:35;6.50;97.40
38788;DHT22;24536;45.488;12.238;2023-12-07T03:59:00;6.50;97.40
38788;DHT22;24536;45.488;12.238;2023-12-07T04:01:27;6.50;97.40
38788;DHT22;24536;45.488;12.238;2023-12-07T04:03:53;6.50;97.40
38788;DHT22;24536;45.488;12.238;2023-12-07T04:06:20;6.50;97.40
38788;DHT22;24536;45.488;12.238;2023-12-07T04:08:46;6.50;97.30
38788;DHT22;24536;45.488;12.238;2023-12-07T04:11:12;6.50;97.30
38788;DHT22;24536;45.488;12.238;2023-12-07T04:13:37;6.50;97.30
38788;DHT22;24536;45.488;12.238;2023-12-07T04:16:03;6.50;97.40
38788;DHT22;24536;45.488;12.238;2023-12-07T04:18:29;6.50;97.30
38788;DHT22;24536;45.488;12.238;2023-12-07T04:20:54;6.50;97.30
38788;DHT22;24536;45.488;12.238;2023-12-07T04:23:20;6.50;97.60
38788;DHT22;24536;45.488;12.238;2023-12-07T04:25:45;6.50;97.30
38788;DHT22;24536;45.488;12.238;2023-12-07T04:28:11;6.50;97.20
38788;DHT22;24536;45.488;12.238;2023-12-07T04:30:37;6.50;97.10
38788;DHT22;24536;45.488;12.238;2023-12-07T04:33:02;6.50;97.20
38788;DHT22;24536;45.488;12.238;2023-12-07T04:35:28;6.50;97.20
38788;DHT22;24536;45.488;12.238;2023-12-07T04:37:54;6.50;97.20
38788;DHT22;24536;45.488;12.238;2023-12-07T04:40:19;6.40;97.10
38788;DHT22;24536;45.488;12.238;2023-12-07T04:42:45;6.40;97.10
38788;DHT22;24536;45.488;12.238;2023-12-07T04:45:11;6.40;97.20
38788;DHT22;24536;45.488;12.238;2023-12-07T04:47:36;6.40;97.10
38788;DHT22;24536;45.488;12.238;2023-12-07T04:50:02;6.30;97.10
38788;DHT22;24536;45.488;12.238;2023-12-07T04:52:27;6.30;97.20
38788;DHT22;24536;45.488;12.238;2023-12-07T04:54:53;6.40;97.20
38788;DHT22;24536;45.488;12.238;2023-12-07T04:57:18;6.40;97.10
38788;DHT22;24536;45.488;12.238;2023-12-07T04:59:44;6.40;97.10
38788;DHT22;24536;45.488;12.238;2023-12-07T05:02:15;6.40;97.00
38788;DHT22;24536;45.488;12.238;2023-12-07T05:04:40;6.40;97.10
38788;DHT22;24536;45.488;12.238;2023-12-07T05:07:06;6.40;97.10
38788;DHT22;24536;45.488;12.238;2023-12-07T05:09:31;6.40;97.10
38788;DHT22;24536;45.488;12.238;2023-12-07T05:11:57;6.40;97.00
38788;DHT22;24536;45.488;12.238;2023-12-07T05:14:23;6.40;97.00
38788;DHT22;24536;45.488;12.238;2023-12-07T05:16:49;6.50;97.00
38788;DHT22;24536;45.488;12.238;2023-12-07T05:19:19;6.50;97.00
38788;DHT22;24536;45.488;12.238;2023-12-07T05:21:46;6.50;97.00
38788;DHT22;24536;45.488;12.238;2023-12-07T05:24:12;6.50;97.00
38788;DHT22;24536;45.488;12.238;2023-12-07T05:26:38;6.50;97.00
38788;DHT22;24536;45.488;12.238;2023-12-07T05:29:03;6.40;96.90
38788;DHT22;24536;45.488;12.238;2023-12-07T05:31:29;6.40;96.90
38788;DHT22;24536;45.488;12.238;2023-12-07T05:33:55;6.40;96.90
38788;DHT22;24536;45.488;12.238;2023-12-07T05:36:20;6.40;97.00
38788;DHT22;24536;45.488;12.238;2023-12-07T05:38:46;6.40;97.00
38788;DHT22;24536;45.488;12.238;2023-12-07T05:41:12;6.40;96.90
38788;DHT22;24536;45.488;12.238;2023-12-07T05:43:40;6.40;96.90
38788;DHT22;24536;45.488;12.238;2023-12-07T05:46:05;6.30;96.90
38788;DHT22;24536;45.488;12.238;2023-12-07T05:48:31;6.30;97.00
38788;DHT22;24536;45.488;12.238;2023-12-07T05:50:56;6.40;97.00
38788;DHT22;24536;45.488;12.238;2023-12-07T05:53:22;6.30;96.90
38788;DHT22;24536;45.488;12.238;2023-12-07T05:55:48;6.30;96.90
38788;DHT22;24536;45.488;12.238;2023-12-07T05:58:13;6.30;96.90
38788;DHT22;24536;45.488;12.238;2023-12-07T06:00:39;6.30;97.00
38788;DHT22;24536;45.488;12.238;2023-12-07T06:03:05;6.20;97.00
38788;DHT22;24536;45.488;12.238;2023-12-07T06:05:30;6.30;97.00
38788;DHT22;24536;45.488;12.238;2023-12-07T06:07:56;6.30;97.00
38788;DHT22;24536;45.488;12.238;2023-12-07T06:10:22;6.30;97.00
38788;DHT22;24536;45.488;12.238;2023-12-07T06:12:48;6.30;96.90
38788;DHT22;24536;45.488;12.238;2023-12-07T06:15:14;6.30;96.90
38788;DHT22;24536;45.488;12.238;2023-12-07T06:17:39;6.20;96.90
38788;DHT22;24536;45.488;12.238;2023-12-07T06:20:05;6.20;96.90
38788;DHT22;24536;45.488;12.238;2023-12-07T06:22:31;6.20;97.00
38788;DHT22;24536;45.488;12.238;2023-12-07T06:24:56;6.20;97.00
38788;DHT22;24536;45.488;12.238;2023-12-07T06:27:22;6.20;97.00
38788;DHT22;24536;45.488;12.238;2023-12-07T06:29:47;6.30;97.00
38788;DHT22;24536;45.488;12.238;2023-12-07T06:32:14;6.30;97.00
38788;DHT22;24536;45.488;12.238;2023-12-07T06:34:40;6.30;97.00
38788;DHT22;24536;45.488;12.238;2023-12-07T06:37:06;6.30;97.00
38788;DHT22;24536;45.488;12.238;2023-12-07T06:39:31;6.30;97.00
38788;DHT22;24536;45.488;12.238;2023-12-07T06:41:57;6.30;96.90
38788;DHT22;24536;45.488;12.238;2023-12-07T06:44:25;6.30;96.90
38788;DHT22;24536;45.488;12.238;2023-12-07T06:46:50;6.20;96.90
38788;DHT22;24536;45.488;12.238;2023-12-07T06:49:16;6.20;96.90
38788;DHT22;24536;45.488;12.238;2023-12-07T06:51:41;6.20;97.00
38788;DHT22;24536;45.488;12.238;2023-12-07T06:54:07;6.30;97.20
38788;DHT22;24536;45.488;12.238;2023-12-07T06:56:33;6.30;97.20
38788;DHT22;24536;45.488;12.238;2023-12-07T06:58:58;6.30;97.10
38788;DHT22;24536;45.488;12.238;2023-12-07T07:01:24;6.30;97.00
38788;DHT22;24536;45.488;12.238;2023-12-07T07:03:49;6.40;97.10
38788;DHT22;24536;45.488;12.238;2023-12-07T07:06:15;6.40;97.00
38788;DHT22;24536;45.488;12.238;2023-12-07T07:08:40;6.40;96.90
38788;DHT22;24536;45.488;12.238;2023-12-07T07:11:12;6.40;97.70
38788;DHT22;24536;45.488;12.238;2023-12-07T07:13:39;6.50;97.00
38788;DHT22;24536;45.488;12.238;2023-12-07T07:16:04;6.40;96.80
38788;DHT22;24536;45.488;12.238;2023-12-07T07:18:30;6.40;96.80
38788;DHT22;24536;45.488;12.238;2023-12-07T07:20:55;6.30;96.70
38788;DHT22;24536;45.488;12.238;2023-12-07T07:23:21;6.30;96.80
38788;DHT22;24536;45.488;12.238;2023-12-07T07:25:46;6.20;96.70
38788;DHT22;24536;45.488;12.238;2023-12-07T07:28:12;6.20;96.80
38788;DHT22;24536;45.488;12.238;2023-12-07T07:30:38;6.20;96.80
38788;DHT22;24536;45.488;12.238;2023-12-07T07:33:03;6.10;96.80
38788;DHT22;24536;45.488;12.238;2023-12-07T07:35:29;6.10;96.80
38788;DHT22;24536;45.488;12.238;2023-12-07T07:37:55;6.00;96.80
38788;DHT22;24536;45.488;12.238;2023-12-07T07:40:20;6.00;96.90
38788;DHT22;24536;45.488;12.238;2023-12-07T07:42:46;6.00;96.80
38788;DHT22;24536;45.488;12.238;2023-12-07T07:45:11;6.00;96.90
38788;DHT22;24536;45.488;12.238;2023-12-07T07:47:37;5.90;96.70
38788;DHT22;24536;45.488;12.238;2023-12-07T07:50:03;5.90;96.80
38788;DHT22;24536;45.488;12.238;2023-12-07T07:52:34;5.90;96.90
38788;DHT22;24536;45.488;12.238;2023-12-07T07:55:00;5.90;96.90
38788;DHT22;24536;45.488;12.238;2023-12-07T07:57:26;5.80;96.90
38788;DHT22;24536;45.488;12.238;2023-12-07T07:59:52;5.90;97.00
38788;DHT22;24536;45.488;12.238;2023-12-07T08:02:17;5.90;97.00
38788;DHT22;24536;45.488;12.238;2023-12-07T08:04:43;5.80;97.10
38788;DHT22;24536;45.488;12.238;2023-12-07T08:07:08;5.90;97.30
38788;DHT22;24536;45.488;12.238;2023-12-07T08:09:36;5.80;97.30
38788;DHT22;24536;45.488;12.238;2023-12-07T08:12:02;5.90;97.30
38788;DHT22;24536;45.488;12.238;2023-12-07T08:14:27;6.00;97.30
38788;DHT22;24536;45.488;12.238;2023-12-07T08:16:53;6.00;97.30
38788;DHT22;24536;45.488;12.238;2023-12-07T08:19:19;6.00;97.40
38788;DHT22;24536;45.488;12.238;2023-12-07T08:21:44;6.10;97.30
38788;DHT22;24536;45.488;12.238;2023-12-07T08:24:10;6.10;97.20
38788;DHT22;24536;45.488;12.238;2023-12-07T08:26:38;6.20;97.30
38788;DHT22;24536;45.488;12.238;2023-12-07T08:29:06;6.30;97.30
38788;DHT22;24536;45.488;12.238;2023-12-07T08:31:32;6.30;97.20
38788;DHT22;24536;45.488;12.238;2023-12-07T08:33:57;6.40;97.00
38788;DHT22;24536;45.488;12.238;2023-12-07T08:36:23;6.60;97.20
38788;DHT22;24536;45.488;12.238;2023-12-07T08:38:48;6.60;97.40
38788;DHT22;24536;45.488;12.238;2023-12-07T08:41:14;6.80;97.20
38788;DHT22;24536;45.488;12.238;2023-12-07T08:43:40;7.00;97.10
38788;DHT22;24536;45.488;12.238;2023-12-07T08:46:05;7.10;96.80
38788;DHT22;24536;45.488;12.238;2023-12-07T08:48:32;7.20;96.40
38788;DHT22;24536;45.488;12.238;2023-12-07T08:50:58;7.20;96.10
38788;DHT22;24536;45.488;12.238;2023-12-07T08:53:24;7.20;96.10
38788;DHT22;24536;45.488;12.238;2023-12-07T08:55:50;7.20;96.10
38788;DHT22;24536;45.488;12.238;2023-12-07T08:58:16;7.20;95.80
38788;DHT22;24536;45.488;12.238;2023-12-07T09:00:41;7.30;96.00
38788;DHT22;24536;45.488;12.238;2023-12-07T09:03:07;7.30;96.00
38788;DHT22;24536;45.488;12.238;2023-12-07T09:05:32;7.40;95.90
38788;DHT22;24536;45.488;12.238;2023-12-07T09:07:58;7.40;96.00
38788;DHT22;24536;45.488;12.238;2023-12-07T09:10:24;7.50;96.00
38788;DHT22;24536;45.488;12.238;2023-12-07T09:12:49;7.60;96.20
38788;DHT22;24536;45.488;12.238;2023-12-07T09:15:15;7.70;96.10
38788;DHT22;24536;45.488;12.238;2023-12-07T09:17:40;7.80;95.80
38788;DHT22;24536;45.488;12.238;2023-12-07T09:20:06;7.90;95.80
38788;DHT22;24536;45.488;12.238;2023-12-07T09:22:37;8.00;95.70
38788;DHT22;24536;45.488;12.238;2023-12-07T09:25:04;8.10;95.70
38788;DHT22;24536;45.488;12.238;2023-12-07T09:27:29;8.20;95.30
38788;DHT22;24536;45.488;12.238;2023-12-07T09:29:58;8.20;95.00
38788;DHT22;24536;45.488;12.238;2023-12-07T09:32:24;8.30;95.00
38788;DHT22;24536;45.488;12.238;2023-12-07T09:34:49;8.30;94.60
38788;DHT22;24536;45.488;12.238;2023-12-07T09:37:18;8.30;94.30
38788;DHT22;24536;45.488;12.238;2023-12-07T09:39:44;8.20;94.20
38788;DHT22;24536;45.488;12.238;2023-12-07T09:42:10;8.20;94.40
38788;DHT22;24536;45.488;12.238;2023-12-07T09:44:35;8.20;94.40
38788;DHT22;24536;45.488;12.238;2023-12-07T09:47:01;8.30;94.30
38788;DHT22;24536;45.488;12.238;2023-12-07T09:49:27;8.40;94.40
38788;DHT22;24536;45.488;12.238;2023-12-07T09:51:52;8.40;94.20
38788;DHT22;24536;45.488;12.238;2023-12-07T09:54:20;8.50;94.20
38788;DHT22;24536;45.488;12.238;2023-12-07T09:56:45;8.50;94.20
38788;DHT22;24536;45.488;12.238;2023-12-07T09:59:11;8.60;94.10
38788;DHT22;24536;45.488;12.238;2023-12-07T10:01:36;8.60;94.40
38788;DHT22;24536;45.488;12.238;2023-12-07T10:06:43;8.80;94.20
38788;DHT22;24536;45.488;12.238;2023-12-07T10:09:10;8.90;94.30
38788;DHT22;24536;45.488;12.238;2023-12-07T10:11:40;9.10;94.00
38788;DHT22;24536;45.488;12.238;2023-12-07T10:14:08;9.20;94.00
38788;DHT22;24536;45.488;12.238;2023-12-07T10:16:34;9.30;94.00
38788;DHT22;24536;45.488;12.238;2023-12-07T10:19:16;9.50;94.00
38788;DHT22;24536;45.488;12.238;2023-12-07T10:21:49;9.70;93.80
38788;DHT22;24536;45.488;12.238;2023-12-07T10:24:18;9.90;93.60
38788;DHT22;24536;45.488;12.238;2023-12-07T10:26:45;10.20;93.50
38788;DHT22;24536;45.488;12.238;2023-12-07T10:29:12;10.50;93.30
38788;DHT22;24536;45.488;12.238;2023-12-07T10:31:38;10.70;92.40
38788;DHT22;24536;45.488;12.238;2023-12-07T10:34:06;10.90;91.60
38788;DHT22;24536;45.488;12.238;2023-12-07T10:36:32;10.90;90.80
38788;DHT22;24536;45.488;12.238;2023-12-07T10:38:58;11.00;91.40
38788;DHT22;24536;45.488;12.238;2023-12-07T10:41:25;11.20;91.70
38788;DHT22;24536;45.488;12.238;2023-12-07T10:43:56;11.40;90.80
38788;DHT22;24536;45.488;12.238;2023-12-07T10:46:25;11.50;91.10
38788;DHT22;24536;45.488;12.238;2023-12-07T10:48:54;11.60;89.30
38788;DHT22;24536;45.488;12.238;2023-12-07T10:51:58;11.60;89.00
38788;DHT22;24536;45.488;12.238;2023-12-07T10:54:14;11.60;88.80
38788;DHT22;24536;45.488;12.238;2023-12-07T10:56:44;11.60;90.20
38788;DHT22;24536;45.488;12.238;2023-12-07T10:59:12;11.80;90.00
38788;DHT22;24536;45.488;12.238;2023-12-07T11:01:43;12.00;90.40
38788;DHT22;24536;45.488;12.238;2023-12-07T11:04:11;12.20;90.30
38788;DHT22;24536;45.488;12.238;2023-12-07T11:06:39;12.20;86.80
38788;DHT22;24536;45.488;12.238;2023-12-07T11:09:06;12.20;89.00
38788;DHT22;24536;45.488;12.238;2023-12-07T11:14:02;12.60;89.20
38788;DHT22;24536;45.488;12.238;2023-12-07T11:16:32;12.70;87.00
38788;DHT22;24536;45.488;12.238;2023-12-07T11:19:00;12.80;88.80
38788;DHT22;24536;45.488;12.238;2023-12-07T11:21:26;12.90;85.50
38788;DHT22;24536;45.488;12.238;2023-12-07T11:23:52;12.90;84.70
38788;DHT22;24536;45.488;12.238;2023-12-07T11:26:20;12.70;85.10
38788;DHT22;24536;45.488;12.238;2023-12-07T11:40:43;12.80;87.10
38788;DHT22;24536;45.488;12.238;2023-12-07T11:46:03;18.90;78.50
38788;DHT22;24536;45.488;12.238;2023-12-07T11:48:29;19.90;73.90
38788;DHT22;24536;45.488;12.238;2023-12-07T11:51:01;20.70;70.40
38788;DHT22;24536;45.488;12.238;2023-12-07T11:53:28;21.30;67.80
38788;DHT22;24536;45.488;12.238;2023-12-07T11:55:57;21.80;65.00
38788;DHT22;24536;45.488;12.238;2023-12-07T11:58:28;22.20;64.30
38788;DHT22;24536;45.488;12.238;2023-12-07T12:00:54;22.50;62.80
38788;DHT22;24536;45.488;12.238;2023-12-07T12:03:24;22.80;61.60
38788;DHT22;24536;45.488;12.238;2023-12-07T12:05:51;23.00;59.60
38788;DHT22;24536;45.488;12.238;2023-12-07T12:08:18;22.80;56.40
38788;DHT22;24536;45.488;12.238;2023-12-07T12:10:47;22.40;55.20
38788;DHT22;24536;45.488;12.238;2023-12-07T12:13:16;22.20;56.50
38788;DHT22;24536;45.488;12.238;2023-12-07T12:15:44;22.00;56.40
38788;DHT22;24536;45.488;12.238;2023-12-07T12:18:10;21.60;56.10
38788;DHT22;24536;45.488;12.238;2023-12-07T12:20:37;21.50;58.10
38788;DHT22;24536;45.488;12.238;2023-12-07T12:23:03;21.30;57.00
38788;DHT22;24536;45.488;12.238;2023-12-07T12:25:30;21.10;57.40
38788;DHT22;24536;45.488;12.238;2023-12-07T12:28:05;21.00;59.70
38788;DHT22;24536;45.488;12.238;2023-12-07T12:30:33;20.90;58.30
38788;DHT22;24536;45.488;12.238;2023-12-07T12:33:00;20.70;59.70
38788;DHT22;24536;45.488;12.238;2023-12-07T12:35:27;20.50;60.10
38788;DHT22;24536;45.488;12.238;2023-12-07T12:37:52;20.30;60.50
38788;DHT22;24536;45.488;12.238;2023-12-07T12:40:22;20.20;61.30
38788;DHT22;24536;45.488;12.238;2023-12-07T12:42:51;20.10;61.60
38788;DHT22;24536;45.488;12.238;2023-12-07T12:45:19;20.00;62.10
38788;DHT22;24536;45.488;12.238;2023-12-07T12:47:46;20.10;62.10
38788;DHT22;24536;45.488;12.238;2023-12-07T12:50:39;19.90;59.90
38788;DHT22;24536;45.488;12.238;2023-12-07T12:53:08;19.40;59.10
38788;DHT22;24536;45.488;12.238;2023-12-07T12:55:40;19.20;62.10
38788;DHT22;24536;45.488;12.238;2023-12-07T12:58:08;19.10;61.60
38788;DHT22;24536;45.488;12.238;2023-12-07T13:00:39;19.10;62.60
38788;DHT22;24536;45.488;12.238;2023-12-07T13:03:08;19.10;61.60
38788;DHT22;24536;45.488;12.238;2023-12-07T13:05:37;19.10;62.80
38788;DHT22;24536;45.488;12.238;2023-12-07T13:08:04;19.20;62.80
38788;DHT22;24536;45.488;12.238;2023-12-07T13:10:31;19.20;62.80
38788;DHT22;24536;45.488;12.238;2023-12-07T13:12:58;19.20;62.10
38788;DHT22;24536;45.488;12.238;2023-12-07T13:15:24;19.10;62.30
38788;DHT22;24536;45.488;12.238;2023-12-07T13:17:55;18.90;62.30
38788;DHT22;24536;45.488;12.238;2023-12-07T13:20:23;18.70;62.70
38788;DHT22;24536;45.488;12.238;2023-12-07T13:22:49;18.30;62.70
38788;DHT22;24536;45.488;12.238;2023-12-07T13:25:15;17.90;63.40
38788;DHT22;24536;45.488;12.238;2023-12-07T13:27:41;17.50;63.70
38788;DHT22;24536;45.488;12.238;2023-12-07T13:30:12;17.00;64.50
38788;DHT22;24536;45.488;12.238;2023-12-07T13:32:37;16.60;65.40
38788;DHT22;24536;45.488;12.238;2023-12-07T13:35:05;16.30;65.80
38788;DHT22;24536;45.488;12.238;2023-12-07T13:37:34;16.00;66.80
38788;DHT22;24536;45.488;12.238;2023-12-07T13:40:02;15.80;67.70
38788;DHT22;24536;45.488;12.238;2023-12-07T13:42:30;15.50;68.70
38788;DHT22;24536;45.488;12.238;2023-12-07T13:44:58;15.30;69.70
38788;DHT22;24536;45.488;12.238;2023-12-07T13:47:26;15.20;70.70
38788;DHT22;24536;45.488;12.238;2023-12-07T13:50:00;15.00;71.40
38788;DHT22;24536;45.488;12.238;2023-12-07T13:52:29;14.80;72.10
38788;DHT22;24536;45.488;12.238;2023-12-07T13:54:56;14.60;72.70
38788;DHT22;24536;45.488;12.238;2023-12-07T13:57:23;14.50;73.30
38788;DHT22;24536;45.488;12.238;2023-12-07T13:59:53;14.40;73.70
38788;DHT22;24536;45.488;12.238;2023-12-07T14:02:20;14.20;74.10
38788;DHT22;24536;45.488;12.238;2023-12-07T14:04:47;14.10;74.60
38788;DHT22;24536;45.488;12.238;2023-12-07T14:07:19;14.00;75.10
38788;DHT22;24536;45.488;12.238;2023-12-07T14:09:48;13.90;75.50
38788;DHT22;24536;45.488;12.238;2023-12-07T14:12:15;13.80;75.90
38788;DHT22;24536;45.488;12.238;2023-12-07T14:14:46;13.70;76.30
38788;DHT22;24536;45.488;12.238;2023-12-07T14:17:16;13.70;76.80
38788;DHT22;24536;45.488;12.238;2023-12-07T14:19:43;13.60;77.20
38788;DHT22;24536;45.488;12.238;2023-12-07T14:22:11;13.40;77.40
38788;DHT22;24536;45.488;12.238;2023-12-07T14:24:38;13.40;78.00
38788;DHT22;24536;45.488;12.238;2023-12-07T14:27:06;13.30;78.20
38788;DHT22;24536;45.488;12.238;2023-12-07T14:29:33;13.20;78.50
38788;DHT22;24536;45.488;12.238;2023-12-07T14:32:00;13.10;78.80
38788;DHT22;24536;45.488;12.238;2023-12-07T14:34:27;13.10;79.00
38788;DHT22;24536;45.488;12.238;2023-12-07T14:36:53;13.00;79.30
38788;DHT22;24536;45.488;12.238;2023-12-07T14:39:19;13.00;79.80
38788;DHT22;24536;45.488;12.238;2023-12-07T14:41:49;12.90;80.00
38788;DHT22;24536;45.488;12.238;2023-12-07T14:44:19;12.90;80.50
38788;DHT22;24536;45.488;12.238;2023-12-07T14:46:47;12.80;80.80
38788;DHT22;24536;45.488;12.238;2023-12-07T14:49:16;12.70;81.30
38788;DHT22;24536;45.488;12.238;2023-12-07T14:51:42;12.70;81.80
38788;DHT22;24536;45.488;12.238;2023-12-07T14:54:09;12.60;82.30
38788;DHT22;24536;45.488;12.238;2023-12-07T14:56:37;12.60;83.00
38788;DHT22;24536;45.488;12.238;2023-12-07T14:59:04;12.50;83.20
38788;DHT22;24536;45.488;12.238;2023-12-07T15:01:30;12.50;83.50
38788;DHT22;24536;45.488;12.238;2023-12-07T15:03:57;12.40;83.70
38788;DHT22;24536;45.488;12.238;2023-12-07T15:06:28;12.40;84.20
38788;DHT22;24536;45.488;12.238;2023-12-07T15:08:55;12.30;84.60
38788;DHT22;24536;45.488;12.238;2023-12-07T15:11:23;12.20;84.80
38788;DHT22;24536;45.488;12.238;2023-12-07T15:13:49;12.10;85.10
38788;DHT22;24536;45.488;12.238;2023-12-07T15:16:20;12.10;85.60
38788;DHT22;24536;45.488;12.238;2023-12-07T15:18:52;12.00;85.90
38788;DHT22;24536;45.488;12.238;2023-12-07T15:21:19;11.90;86.40
38788;DHT22;24536;45.488;12.238;2023-12-07T15:23:49;11.90;86.90
38788;DHT22;24536;45.488;12.238;2023-12-07T15:26:19;11.80;87.20
38788;DHT22;24536;45.488;12.238;2023-12-07T15:28:45;11.80;87.60
38788;DHT22;24536;45.488;12.238;2023-12-07T15:31:12;11.70;87.90
38788;DHT22;24536;45.488;12.238;2023-12-07T15:33:38;11.70;88.20
38788;DHT22;24536;45.488;12.238;2023-12-07T15:36:09;11.70;88.40
38788;DHT22;24536;45.488;12.238;2023-12-07T15:38:40;11.60;88.60
38788;DHT22;24536;45.488;12.238;2023-12-07T15:41:07;11.60;88.90
38788;DHT22;24536;45.488;12.238;2023-12-07T15:43:34;11.50;89.20
38788;DHT22;24536;45.488;12.238;2023-12-07T15:46:01;11.50;89.50
38788;DHT22;24536;45.488;12.238;2023-12-07T15:48:29;11.50;89.80
38788;DHT22;24536;45.488;12.238;2023-12-07T15:50:56;11.40;89.80
38788;DHT22;24536;45.488;12.238;2023-12-07T15:53:26;11.40;90.00
38788;DHT22;24536;45.488;12.238;2023-12-07T15:55:54;11.30;90.30
38788;DHT22;24536;45.488;12.238;2023-12-07T15:58:20;11.30;90.20
38788;DHT22;24536;45.488;12.238;2023-12-07T16:00:46;11.30;90.30
38788;DHT22;24536;45.488;12.238;2023-12-07T16:03:15;11.30;90.40
38788;DHT22;24536;45.488;12.238;2023-12-07T16:05:41;11.20;90.50
38788;DHT22;24536;45.488;12.238;2023-12-07T16:08:07;11.20;90.60
38788;DHT22;24536;45.488;12.238;2023-12-07T16:10:33;11.10;90.60
38788;DHT22;24536;45.488;12.238;2023-12-07T16:13:01;11.10;90.70
38788;DHT22;24536;45.488;12.238;2023-12-07T16:15:26;11.00;90.80
38788;DHT22;24536;45.488;12.238;2023-12-07T16:17:54;11.00;90.90
38788;DHT22;24536;45.488;12.238;2023-12-07T16:20:19;11.00;91.20
38788;DHT22;24536;45.488;12.238;2023-12-07T16:22:47;10.90;91.10
38788;DHT22;24536;45.488;12.238;2023-12-07T16:25:12;10.90;91.20
38788;DHT22;24536;45.488;12.238;2023-12-07T16:27:40;10.80;91.30
38788;DHT22;24536;45.488;12.238;2023-12-07T16:30:06;10.80;91.40
38788;DHT22;24536;45.488;12.238;2023-12-07T16:32:38;10.70;91.40
38788;DHT22;24536;45.488;12.238;2023-12-07T16:35:05;10.70;91.60
38788;DHT22;24536;45.488;12.238;2023-12-07T16:37:32;10.60;91.70
38788;DHT22;24536;45.488;12.238;2023-12-07T16:40:00;10.60;91.80
38788;DHT22;24536;45.488;12.238;2023-12-07T16:42:26;10.50;91.80
38788;DHT22;24536;45.488;12.238;2023-12-07T16:44:54;10.50;92.00
38788;DHT22;24536;45.488;12.238;2023-12-07T16:47:25;10.40;92.10
38788;DHT22;24536;45.488;12.238;2023-12-07T16:49:56;10.40;92.40
38788;DHT22;24536;45.488;12.238;2023-12-07T16:52:23;10.40;92.30